Time;durP1;ratioP1;P1;durP2;ratioP2;P2;SDS_P1;SDS_P2;PMS_P1;PMS_P2;Temp;Humidity;BMP_temperature;BMP_pressure;BME280_temperature;BME280_humidity;BME280_pressure;Samples;Min_cycle;Max_cycle;Signal;HPM_P1;HPM_P2
2021/12/09 00:05:08;;;;;;;130.70;63.95;;;;;;;0.11;88.69;94551.03;5073181;28;20280;-81
2021/12/09 00:07:36;;;;;;;126.82;63.00;;;;;;;0.16;88.31;94548.22;5072940;28;20656;-81
2021/12/09 00:10:06;;;;;;;114.88;59.22;;;;;;;0.24;88.16;94561.56;5073033;28;20190;-81
2021/12/09 00:12:34;;;;;;;120.40;61.13;;;;;;;0.29;87.67;94549.31;5073449;28;20198;-81
2021/12/09 00:15:00;;;;;;;110.32;59.97;;;;;;;0.32;87.84;94546.56;5073043;28;20610;-81
2021/12/09 00:17:27;;;;;;;115.55;59.58;;;;;;;0.40;88.09;94547.00;5073034;28;20237;-81
2021/12/09 00:19:54;;;;;;;104.57;52.28;;;;;;;0.47;88.32;94550.09;5073209;28;20194;-81
2021/12/09 00:22:21;;;;;;;95.68;49.22;;;;;;;0.51;87.78;94544.69;5072840;28;20232;-82
2021/12/09 00:24:50;;;;;;;84.05;43.33;;;;;;;0.43;87.79;94539.09;5073173;28;20192;-81
2021/12/09 00:27:17;;;;;;;84.60;44.67;;;;;;;0.46;87.71;94545.84;5072866;28;20198;-81
2021/12/09 00:29:44;;;;;;;80.85;42.47;;;;;;;0.45;88.33;94541.59;5072837;28;20196;-81
2021/12/09 00:32:10;;;;;;;81.78;43.33;;;;;;;0.51;88.29;94539.53;5072971;28;20208;-81
2021/12/09 00:34:41;;;;;;;70.82;40.00;;;;;;;0.55;88.06;94540.22;5037825;28;20202;-81
2021/12/09 00:37:18;;;;;;;83.80;45.53;;;;;;;0.65;89.28;94527.69;5073104;28;20240;-81
2021/12/09 00:39:47;;;;;;;76.35;40.28;;;;;;;0.70;88.95;94517.94;5072969;28;20287;-81
2021/12/09 00:52:24;;;;;;;65.75;40.35;;;;;;;0.90;89.73;94473.81;5071806;28;20216;-81
2021/12/09 00:54:52;;;;;;;82.60;39.70;;;;;;;0.95;89.46;94482.16;5073360;28;20567;-81
2021/12/09 00:57:19;;;;;;;67.90;39.92;;;;;;;0.98;89.79;94470.81;5072472;28;20190;-81
2021/12/09 00:59:46;;;;;;;76.07;42.25;;;;;;;0.96;89.98;94486.41;5072813;28;20629;-81
2021/12/09 01:02:13;;;;;;;66.63;41.35;;;;;;;0.98;89.74;94486.31;5074601;28;20253;-82
2021/12/09 01:04:41;;;;;;;67.15;38.75;;;;;;;1.00;89.69;94489.66;5076026;28;20725;-81
2021/12/09 01:07:09;;;;;;;55.85;34.25;;;;;;;1.05;90.32;94491.06;5076065;28;20660;-81
2021/12/09 01:09:38;;;;;;;57.35;33.15;;;;;;;1.09;90.09;94500.31;5076413;28;20194;-81
2021/12/09 01:12:05;;;;;;;55.63;30.63;;;;;;;1.09;89.52;94496.88;5076232;28;20205;-81
2021/12/09 01:14:32;;;;;;;57.58;29.50;;;;;;;1.14;89.63;94498.28;5075077;28;20202;-81
2021/12/09 01:16:59;;;;;;;52.57;26.97;;;;;;;1.12;89.97;94500.13;5074807;28;20209;-82
2021/12/09 01:19:26;;;;;;;34.67;18.95;;;;;;;1.16;90.18;94499.06;5075375;28;20452;-81
2021/12/09 01:21:53;;;;;;;27.57;16.43;;;;;;;1.18;90.44;94499.81;5075320;28;20651;-81
2021/12/09 01:24:20;;;;;;;31.38;17.05;;;;;;;1.28;90.54;94499.31;5075638;28;20792;-81
2021/12/09 01:26:50;;;;;;;22.80;12.30;;;;;;;1.33;90.29;94497.28;5075767;28;20190;-81
2021/12/09 01:29:20;;;;;;;21.38;12.30;;;;;;;1.40;90.14;94490.88;5041221;28;20283;-81
2021/12/09 01:31:55;;;;;;;17.80;12.32;;;;;;;1.46;89.62;94482.78;5076335;28;20198;-81
2021/12/09 01:34:23;;;;;;;30.55;13.07;;;;;;;1.53;89.47;94481.53;5075691;28;20221;-81
2021/12/09 01:36:50;;;;;;;18.97;13.13;;;;;;;1.59;89.32;94481.16;5075717;28;20190;-81
2021/12/09 01:39:18;;;;;;;22.93;13.17;;;;;;;1.60;89.32;94490.59;5075869;28;20450;-81
2021/12/09 01:41:45;;;;;;;25.90;13.17;;;;;;;1.62;89.34;94487.91;5075972;28;20681;-81
2021/12/09 01:44:13;;;;;;;20.87;12.50;;;;;;;1.66;89.66;94490.25;5076087;28;20551;-81
2021/12/09 01:46:41;;;;;;;20.30;12.00;;;;;;;1.68;89.78;94496.16;5075477;28;20449;-81
2021/12/09 01:49:08;;;;;;;18.88;11.65;;;;;;;1.65;89.45;94493.75;5076244;28;20428;-86
2021/12/09 01:51:35;;;;;;;15.53;10.07;;;;;;;1.59;90.00;94481.16;5075447;28;20198;-81
2021/12/09 01:54:03;;;;;;;22.53;12.93;;;;;;;1.65;90.11;94485.16;5075403;28;20433;-81
2021/12/09 02:03:15;;;;;;;66.10;35.10;;;;;;;0.59;89.72;94482.38;5074377;28;20245;-81
2021/12/09 02:05:42;;;;;;;64.45;36.50;;;;;;;0.65;90.48;94486.38;5075171;28;20612;-82
2021/12/09 02:08:09;;;;;;;65.97;36.10;;;;;;;0.67;90.81;94498.28;5075319;28;20197;-82
2021/12/09 02:10:36;;;;;;;66.57;39.05;;;;;;;0.68;90.95;94492.19;5075307;28;20248;-81
2021/12/09 02:19:48;;;;;;;48.70;31.63;;;;;;;0.39;89.84;94483.41;5071789;28;20234;-82
2021/12/09 02:22:17;;;;;;;48.72;30.83;;;;;;;0.15;90.67;94479.50;5074779;28;20201;-81
2021/12/09 02:24:44;;;;;;;48.72;28.55;;;;;;;0.06;91.53;94492.88;5074773;28;20661;-82
2021/12/09 02:27:11;;;;;;;44.97;27.90;;;;;;;0.04;91.22;94489.53;5074871;28;20285;-82
2021/12/09 02:36:21;;;;;;;47.75;28.25;;;;;;;-0.07;91.76;94514.09;5073807;28;20248;-81
2021/12/09 02:38:50;;;;;;;52.50;28.40;;;;;;;-0.07;92.76;94501.19;5074829;28;20198;-81
2021/12/09 02:41:19;;;;;;;45.65;28.30;;;;;;;-0.28;93.02;94501.47;5074498;28;20201;-81
2021/12/09 02:43:50;;;;;;;52.08;30.50;;;;;;;-0.38;94.15;94508.78;5073946;28;20227;-81
2021/12/09 02:46:18;;;;;;;64.70;31.50;;;;;;;-0.39;94.69;94495.06;5075100;28;20205;-81
2021/12/09 02:48:45;;;;;;;54.53;30.90;;;;;;;-0.45;95.00;94489.38;5074444;28;20284;-81
2021/12/09 02:51:13;;;;;;;60.80;30.13;;;;;;;-0.40;94.84;94492.56;5074623;28;20625;-81
2021/12/09 02:53:41;;;;;;;68.95;35.40;;;;;;;-0.33;95.21;94494.75;5074118;28;20214;-81
2021/12/09 02:56:10;;;;;;;62.72;31.52;;;;;;;-0.29;95.48;94495.44;5074614;28;20767;-81
2021/12/09 03:05:21;;;;;;;54.17;30.02;;;;;;;-0.65;95.32;94498.06;5073976;28;20247;-81
2021/12/09 03:07:47;;;;;;;56.30;30.05;;;;;;;-0.59;95.92;94502.91;5039106;28;20285;-81
2021/12/09 03:10:20;;;;;;;55.70;28.85;;;;;;;-0.52;95.81;94501.72;5039050;28;20195;-81
2021/12/09 03:12:49;;;;;;;51.33;30.40;;;;;;;-0.45;94.88;94499.69;5074067;28;20186;-81
2021/12/09 03:15:17;;;;;;;47.75;28.17;;;;;;;-0.36;94.03;94494.06;5073669;28;20567;-81
2021/12/09 03:17:47;;;;;;;53.10;28.85;;;;;;;-0.31;94.03;94486.94;5073922;28;20209;-81
2021/12/09 03:20:15;;;;;;;53.25;27.67;;;;;;;-0.33;93.21;94484.44;5073539;28;20219;-81
2021/12/09 03:22:42;;;;;;;43.00;27.13;;;;;;;-0.32;93.46;94480.13;5073749;28;20222;-81
2021/12/09 03:25:12;;;;;;;51.63;30.65;;;;;;;-0.38;93.70;94476.09;5073234;28;20191;-82
2021/12/09 03:27:39;;;;;;;47.45;28.23;;;;;;;-0.42;93.34;94484.06;5073840;28;20186;-81
2021/12/09 03:30:11;;;;;;;57.70;31.10;;;;;;;-0.34;94.04;94503.41;5073540;28;20201;-81
2021/12/09 03:59:33;;;;;;;61.83;33.35;;;;;;;-1.19;98.73;94483.44;5072090;28;20193;-81
2021/12/09 04:02:00;;;;;;;54.88;29.20;;;;;;;-1.06;98.29;94492.28;5073026;28;20212;-81
2021/12/09 04:04:27;;;;;;;67.40;35.35;;;;;;;-0.86;97.85;94505.06;5037105;28;20218;-81
2021/12/09 04:06:54;;;;;;;62.08;33.08;;;;;;;-0.66;98.01;94517.84;5073421;28;20194;-81
2021/12/09 04:09:22;;;;;;;53.78;29.83;;;;;;;-0.44;96.84;94527.13;5072956;28;20210;-81
2021/12/09 04:11:49;;;;;;;59.78;30.52;;;;;;;-0.30;95.55;94519.53;5072974;28;20284;-81
2021/12/09 04:14:16;;;;;;;66.50;35.13;;;;;;;-0.26;95.18;94512.53;5073272;28;20193;-81
2021/12/09 04:16:45;;;;;;;60.83;33.70;;;;;;;-0.14;95.27;94515.31;5072871;28;20217;-81
2021/12/09 04:19:13;;;;;;;67.38;38.90;;;;;;;-0.02;94.78;94513.88;5073474;28;20230;-82
2021/12/09 04:31:48;;;;;;;86.07;49.33;;;;;;;0.18;93.25;94518.03;5072011;28;20194;-81
2021/12/09 04:34:16;;;;;;;94.22;51.55;;;;;;;0.11;92.83;94532.16;5072934;28;20203;-81
2021/12/09 04:36:42;;;;;;;94.47;50.13;;;;;;;0.03;92.96;94524.81;5073917;28;20644;-81
2021/12/09 04:39:09;;;;;;;87.20;45.50;;;;;;;0.06;94.05;94526.41;5076657;28;20195;-81
2021/12/09 04:41:37;;;;;;;85.38;45.08;;;;;;;-0.06;94.00;94532.97;5076924;28;20210;-81
2021/12/09 04:44:04;;;;;;;84.00;45.70;;;;;;;-0.02;94.78;94529.34;5076781;28;20565;-81
2021/12/09 04:46:32;;;;;;;73.55;42.33;;;;;;;0.03;94.59;94521.41;5076982;28;20198;-81
2021/12/09 04:49:00;;;;;;;76.05;43.97;;;;;;;0.11;94.28;94537.31;5076905;28;20565;-81
2021/12/09 04:51:27;;;;;;;68.35;40.45;;;;;;;0.22;94.65;94529.88;5076781;28;20188;-82
2021/12/09 04:53:54;;;;;;;78.88;41.25;;;;;;;0.30;94.38;94528.59;5076451;28;20679;-81
2021/12/09 04:56:22;;;;;;;71.25;39.25;;;;;;;0.32;93.34;94549.16;5076590;28;20199;-80
2021/12/09 04:58:50;;;;;;;64.30;40.47;;;;;;;0.40;93.20;94541.84;5076605;28;20209;-79
2021/12/09 05:01:18;;;;;;;72.10;40.78;;;;;;;0.49;93.04;94550.84;5076335;28;20205;-81
2021/12/09 05:03:47;;;;;;;65.07;37.97;;;;;;;0.44;92.61;94553.66;5076275;28;20698;-81
2021/12/09 05:06:33;;;;;;;65.47;42.42;;;;;;;0.37;91.79;94548.91;5054111;28;20194;-81
2021/12/09 05:09:06;;;;;;;81.25;46.63;;;;;;;0.22;92.50;94547.94;5054035;28;20206;-81
2021/12/09 05:11:47;;;;;;;100.18;54.80;;;;;;;0.06;93.36;94542.72;5054102;28;20207;-81
2021/12/09 05:14:15;;;;;;;101.82;54.95;;;;;;;0.04;94.12;94533.38;5054110;28;20195;-81
2021/12/09 05:16:44;;;;;;;84.80;52.28;;;;;;;0.05;94.53;94540.22;5021100;28;20213;-81
2021/12/09 05:19:10;;;;;;;97.25;54.78;;;;;;;-0.13;93.66;94532.47;5053760;28;20226;-81
2021/12/09 05:21:39;;;;;;;82.60;45.80;;;;;;;-0.29;94.19;94539.25;5053767;28;20305;-81
2021/12/09 05:24:07;;;;;;;65.15;38.47;;;;;;;-0.37;94.74;94549.13;5059553;28;20237;-81
2021/12/09 05:26:41;;;;;;;58.60;34.08;;;;;;;-0.35;94.01;94552.44;5076182;28;20182;-80
2021/12/09 05:29:08;;;;;;;59.58;34.85;;;;;;;-0.28;93.95;94553.84;5075692;28;20191;-81
2021/12/09 05:38:20;;;;;;;66.88;34.60;;;;;;;-0.21;92.40;94555.22;5074322;28;20249;-79
2021/12/09 05:40:47;;;;;;;78.88;40.20;;;;;;;-0.28;91.81;94559.00;5040224;28;20289;-81
2021/12/09 05:43:15;;;;;;;75.05;43.95;;;;;;;-0.15;92.82;94560.06;5073976;28;21007;-81
2021/12/09 05:45:44;;;;;;;68.20;37.92;;;;;;;-0.22;92.38;94557.88;5076086;28;20626;-81
2021/12/09 05:48:11;;;;;;;53.15;31.15;;;;;;;-0.23;91.74;94554.47;5074852;28;20651;-82
2021/12/09 05:50:39;;;;;;;64.22;33.30;;;;;;;-0.29;92.01;94539.25;5040337;28;20563;-81
2021/12/09 05:53:06;;;;;;;61.03;36.55;;;;;;;-0.49;91.82;94554.88;5076640;28;20206;-81
2021/12/09 05:55:35;;;;;;;60.92;34.35;;;;;;;-0.50;91.70;94560.94;5075849;28;20233;-81
2021/12/09 05:58:03;;;;;;;66.18;34.72;;;;;;;-0.43;92.26;94564.88;5075460;28;20204;-81
2021/12/09 06:00:30;;;;;;;65.55;38.15;;;;;;;-0.40;92.04;94578.44;5075035;28;20652;-82
2021/12/09 06:09:40;;;;;;;58.67;30.92;;;;;;;-1.26;92.82;94558.38;5074055;28;20270;-79
2021/12/09 06:12:09;;;;;;;59.67;31.52;;;;;;;-1.30;93.01;94567.13;5075427;28;20644;-80
2021/12/09 06:14:36;;;;;;;62.58;33.10;;;;;;;-1.18;93.25;94559.75;5075303;28;20206;-80
2021/12/09 06:17:03;;;;;;;58.65;32.45;;;;;;;-1.20;92.52;94566.72;5075700;28;20208;-81
2021/12/09 06:19:30;;;;;;;50.50;27.35;;;;;;;-1.12;92.55;94568.06;5073050;28;20230;-83
2021/12/09 06:21:57;;;;;;;55.40;31.35;;;;;;;-1.30;93.14;94558.56;5075161;28;20198;-81
2021/12/09 06:24:24;;;;;;;52.63;29.65;;;;;;;-1.35;93.35;94557.94;5074713;28;20221;-82
2021/12/09 06:26:51;;;;;;;52.45;30.25;;;;;;;-1.17;94.00;94564.00;5075160;28;20210;-82
2021/12/09 06:42:47;;;;;;;79.88;39.45;;;;;;;-0.74;93.81;94561.16;5074915;28;20254;-83
2021/12/09 06:45:15;;;;;;;85.85;38.60;;;;;;;-0.64;93.64;94566.72;5054774;28;20221;-83
2021/12/09 06:47:43;;;;;;;96.18;40.92;;;;;;;-0.64;93.98;94559.81;5038847;28;20205;-84
2021/12/09 06:50:12;;;;;;;82.13;42.58;;;;;;;-0.44;94.75;94569.19;5073631;28;20198;-84
2021/12/09 06:52:40;;;;;;;92.55;43.30;;;;;;;-0.31;93.77;94562.53;5073329;28;20199;-84
2021/12/09 06:55:10;;;;;;;87.82;41.28;;;;;;;-0.23;92.74;94580.22;5075178;28;20206;-84
2021/12/09 06:57:38;;;;;;;94.78;44.83;;;;;;;-0.18;93.22;94565.38;5074103;28;20272;-81
2021/12/09 07:00:08;;;;;;;82.68;43.85;;;;;;;-0.01;93.35;94573.09;5074134;28;20255;-81
2021/12/09 07:02:35;;;;;;;116.63;45.97;;;;;;;0.11;93.47;94565.69;5058806;28;20200;-81
2021/12/09 07:05:02;;;;;;;98.13;42.50;;;;;;;0.17;92.91;94560.22;5078198;28;20221;-80
2021/12/09 07:07:30;;;;;;;138.98;53.45;;;;;;;0.35;93.35;94561.91;5073354;28;20194;-80
2021/12/09 07:09:57;;;;;;;127.32;50.80;;;;;;;0.48;93.67;94550.03;5094709;28;20182;-80
2021/12/09 07:12:24;;;;;;;146.38;76.85;;;;;;;0.53;92.86;94558.34;5041774;28;20201;-79
2021/12/09 07:14:51;;;;;;;144.00;60.00;;;;;;;0.39;93.29;94578.06;5073954;28;20190;-82
2021/12/09 07:17:20;;;;;;;123.00;51.25;;;;;;;0.50;94.29;94578.34;5074052;28;20354;-79
2021/12/09 07:19:47;;;;;;;145.20;60.63;;;;;;;0.45;93.79;94557.91;5074084;28;20255;-80
2021/12/09 07:22:14;;;;;;;146.07;65.55;;;;;;;0.47;93.91;94558.69;5073848;28;20550;-80
2021/12/09 07:24:41;;;;;;;144.50;65.30;;;;;;;0.53;94.36;94560.94;5074090;28;20206;-80
2021/12/09 07:27:08;;;;;;;155.75;68.68;;;;;;;0.38;94.57;94564.31;5068043;28;20203;-79
2021/12/09 07:29:35;;;;;;;158.25;63.42;;;;;;;0.51;94.85;94564.50;5072374;28;20701;-81
2021/12/09 07:32:02;;;;;;;149.52;62.38;;;;;;;0.45;95.83;94545.00;5094023;28;20198;-80
2021/12/09 07:34:30;;;;;;;98.78;43.22;;;;;;;0.61;96.68;94545.91;5093820;28;20273;-81
2021/12/09 07:37:04;;;;;;;108.40;45.60;;;;;;;0.68;96.46;94550.75;5093994;28;20205;-80
2021/12/09 07:39:32;;;;;;;113.75;47.25;;;;;;;0.70;96.34;94541.19;5085769;28;20280;-81
2021/12/09 07:41:59;;;;;;;104.20;44.15;;;;;;;0.76;96.65;94535.69;5061749;28;20295;-80
2021/12/09 07:44:27;;;;;;;95.70;43.72;;;;;;;0.80;96.35;94537.19;5053569;28;20268;-81
2021/12/09 07:46:55;;;;;;;97.28;41.03;;;;;;;0.70;97.02;94541.19;5072680;28;20267;-80
2021/12/09 07:49:22;;;;;;;97.75;39.38;;;;;;;0.77;96.66;94550.25;5071803;28;20665;-80
2021/12/09 07:51:51;;;;;;;72.47;42.50;;;;;;;0.85;96.61;94548.09;5073063;28;20202;-81
2021/12/09 07:54:18;;;;;;;101.10;47.50;;;;;;;0.73;95.97;94535.84;5073152;28;20645;-80
2021/12/09 07:56:45;;;;;;;102.85;47.58;;;;;;;0.64;96.09;94513.94;5072943;28;20654;-83
2021/12/09 07:59:13;;;;;;;91.13;41.58;;;;;;;0.26;95.96;94516.72;5038233;28;20206;-82
2021/12/09 08:01:40;;;;;;;77.25;41.28;;;;;;;0.35;96.98;94530.09;5073165;28;20216;-82
2021/12/09 08:04:07;;;;;;;73.53;37.90;;;;;;;0.51;97.22;94536.13;5073157;28;20657;-82
2021/12/09 08:06:35;;;;;;;65.28;30.73;;;;;;;0.50;97.45;94532.69;5073311;28;20658;-82
2021/12/09 08:09:04;;;;;;;71.63;30.45;;;;;;;0.42;96.44;94544.34;5073136;28;20306;-82
2021/12/09 08:11:33;;;;;;;78.88;31.55;;;;;;;0.52;97.33;94535.22;5072786;28;20565;-82
2021/12/09 08:14:00;;;;;;;74.80;34.30;;;;;;;0.57;97.80;94549.53;5073167;28;20190;-82
2021/12/09 08:16:29;;;;;;;84.75;34.35;;;;;;;0.52;96.86;94548.94;5073480;28;20268;-82
2021/12/09 08:18:56;;;;;;;74.05;36.50;;;;;;;0.63;97.01;94557.91;5073282;28;20241;-82
2021/12/09 08:21:24;;;;;;;70.38;30.98;;;;;;;0.71;96.46;94545.44;5072893;28;20201;-82
2021/12/09 08:23:51;;;;;;;75.38;32.47;;;;;;;0.58;96.09;94548.66;5072848;28;20210;-82
2021/12/09 08:26:19;;;;;;;54.78;27.00;;;;;;;0.70;96.34;94548.91;5036838;28;20202;-82
2021/12/09 08:28:46;;;;;;;58.40;23.42;;;;;;;0.52;96.84;94559.28;5071807;28;20194;-82
2021/12/09 08:31:13;;;;;;;52.75;23.88;;;;;;;0.53;96.89;94558.34;5071772;28;20202;-82
2021/12/09 08:33:40;;;;;;;55.15;26.95;;;;;;;0.65;96.96;94546.59;5072056;28;20559;-82
2021/12/09 08:36:07;;;;;;;56.90;25.80;;;;;;;0.61;96.94;94535.59;5071879;28;20206;-82
2021/12/09 08:38:36;;;;;;;62.55;26.88;;;;;;;0.73;96.73;94544.44;5071987;28;20255;-82
2021/12/09 08:41:03;;;;;;;58.00;25.88;;;;;;;0.74;96.55;94542.69;5071711;28;20200;-81
2021/12/09 08:43:31;;;;;;;51.67;28.70;;;;;;;0.90;96.94;94533.22;5071991;28;20194;-82
2021/12/09 08:45:59;;;;;;;59.28;30.90;;;;;;;1.06;96.97;94525.47;5036001;28;20304;-82
2021/12/09 08:48:28;;;;;;;54.33;28.60;;;;;;;1.26;96.95;94537.31;5071733;28;20202;-82
2021/12/09 08:50:55;;;;;;;55.85;30.02;;;;;;;1.27;94.77;94523.50;5069384;28;20244;-82
2021/12/09 08:53:24;;;;;;;77.88;34.80;;;;;;;1.14;94.48;94521.56;5071670;28;20661;-82
2021/12/09 08:55:52;;;;;;;68.95;36.85;;;;;;;1.17;94.62;94513.66;5071847;28;20202;-82
2021/12/09 08:58:19;;;;;;;66.32;32.85;;;;;;;1.32;95.06;94513.72;5036324;28;20198;-82
2021/12/09 09:00:51;;;;;;;67.47;33.27;;;;;;;1.20;94.66;94510.91;5036701;28;20637;-82
2021/12/09 09:03:18;;;;;;;78.15;38.97;;;;;;;1.31;94.79;94514.66;5071488;28;20977;-82
2021/12/09 09:05:45;;;;;;;70.30;33.27;;;;;;;1.34;95.09;94504.13;5035982;28;20222;-82
2021/12/09 09:08:12;;;;;;;69.32;36.50;;;;;;;1.30;94.43;94508.66;5071620;28;20445;-82
2021/12/09 09:10:41;;;;;;;80.28;38.58;;;;;;;1.51;93.77;94504.03;5071322;28;20198;-82
2021/12/09 09:13:08;;;;;;;82.65;39.60;;;;;;;1.64;93.94;94496.41;5071442;28;20202;-82
2021/12/09 09:15:36;;;;;;;85.25;39.35;;;;;;;1.70;93.43;94486.56;5071467;28;20202;-82
2021/12/09 09:18:05;;;;;;;85.20;40.40;;;;;;;1.72;93.21;94484.72;5071284;28;20620;-82
2021/12/09 09:20:34;;;;;;;88.95;41.83;;;;;;;1.69;92.42;94476.28;5071517;28;20452;-82
2021/12/09 09:23:01;;;;;;;91.05;41.95;;;;;;;1.47;93.25;94476.69;5071617;28;20659;-82
2021/12/09 09:25:30;;;;;;;84.63;40.73;;;;;;;1.59;93.33;94472.56;5074476;28;20218;-82
2021/12/09 09:27:58;;;;;;;91.57;41.83;;;;;;;1.48;93.29;94470.63;5074992;28;20448;-82
2021/12/09 09:30:33;;;;;;;79.55;38.65;;;;;;;1.35;93.95;94464.44;5074622;28;20931;-82
2021/12/09 09:33:01;;;;;;;84.75;40.88;;;;;;;1.17;94.36;94448.22;5074969;28;20204;-82
2021/12/09 09:35:29;;;;;;;77.43;38.50;;;;;;;1.31;95.38;94460.38;5074836;28;20201;-83
2021/12/09 09:37:56;;;;;;;73.40;32.90;;;;;;;1.50;95.44;94466.19;5074682;28;20822;-82
2021/12/09 09:40:27;;;;;;;60.03;31.83;;;;;;;1.67;94.66;94463.47;5074516;28;20557;-82
2021/12/09 09:43:03;;;;;;;61.90;33.67;;;;;;;1.79;93.55;94474.88;5074991;28;20674;-82
2021/12/09 09:45:31;;;;;;;76.53;37.83;;;;;;;1.91;93.64;94443.09;5074525;28;20221;-82
2021/12/09 09:47:58;;;;;;;76.73;40.33;;;;;;;2.00;94.01;94452.91;5074831;28;20221;-82
2021/12/09 09:50:26;;;;;;;80.80;38.33;;;;;;;2.14;92.68;94465.06;5074420;28;20939;-82
2021/12/09 09:52:56;;;;;;;87.90;41.87;;;;;;;2.29;91.81;94453.78;5074589;28;20831;-82
2021/12/09 09:55:23;;;;;;;98.70;49.60;;;;;;;2.31;91.04;94431.22;5039699;28;20790;-82
2021/12/09 09:57:52;;;;;;;104.00;52.50;;;;;;;2.17;91.80;94446.75;5074491;28;20440;-82
2021/12/09 10:00:22;;;;;;;92.20;47.10;;;;;;;2.36;91.55;94446.50;5074481;28;20439;-82
2021/12/09 10:02:53;;;;;;;109.87;51.13;;;;;;;2.52;91.89;94408.38;5074141;28;20867;-82
2021/12/09 10:05:25;;;;;;;221.83;105.60;;;;;;;2.68;91.22;94409.13;5074058;28;20542;-82
2021/12/09 10:07:55;;;;;;;106.43;53.03;;;;;;;2.59;89.94;94411.41;5073875;28;20432;-82
2021/12/09 10:10:23;;;;;;;98.00;48.00;;;;;;;2.80;89.54;94417.88;5074647;28;20452;-82
2021/12/09 10:12:58;;;;;;;92.27;43.07;;;;;;;2.90;88.31;94408.63;5073909;28;20433;-82
2021/12/09 10:15:40;;;;;;;75.90;39.50;;;;;;;3.05;88.36;94419.75;5073987;28;20444;-82
2021/12/09 10:18:08;;;;;;;85.67;44.93;;;;;;;3.17;87.34;94394.81;5073688;28;20440;-82
2021/12/09 10:20:48;;;;;;;86.00;44.30;;;;;;;3.24;86.82;94403.88;5074411;28;20444;-82
2021/12/09 10:23:29;;;;;;;90.40;50.70;;;;;;;3.21;87.08;94397.13;5074018;28;20440;-82
2021/12/09 10:26:24;;;;;;;94.83;54.13;;;;;;;3.08;87.00;94399.66;5073649;28;20479;-81
2021/12/09 10:28:55;;;;;;;90.07;47.83;;;;;;;3.01;86.85;94403.56;5011600;28;20447;-81
2021/12/09 10:31:26;;;;;;;99.77;50.80;;;;;;;2.62;89.26;94398.31;5011565;28;20926;-81
2021/12/09 10:34:02;;;;;;;101.03;53.03;;;;;;;2.68;88.95;94397.91;5011591;28;20474;-81
2021/12/09 10:36:59;;;;;;;81.03;41.67;;;;;;;2.62;89.97;94408.66;5011338;28;20496;-82
2021/12/09 10:39:34;;;;;;;73.07;38.90;;;;;;;2.47;91.74;94381.94;5011241;28;20454;-81
2021/12/09 10:42:05;;;;;;;73.47;42.07;;;;;;;2.62;91.23;94396.56;5011394;28;20443;-82
2021/12/09 10:44:45;;;;;;;90.77;41.67;;;;;;;2.65;90.48;94383.41;5011292;28;20966;-82
2021/12/09 10:47:21;;;;;;;73.17;39.97;;;;;;;2.86;90.30;94396.75;5011411;28;20455;-81
2021/12/09 10:50:02;;;;;;;88.10;41.17;;;;;;;3.03;90.60;94382.75;5011211;28;20961;-82
2021/12/09 10:52:37;;;;;;;83.70;43.00;;;;;;;3.19;89.74;94382.63;5010884;28;20458;-81
2021/12/09 10:55:19;;;;;;;59.73;35.40;;;;;;;3.10;88.37;94379.66;5012462;28;20446;-81
2021/12/09 10:57:53;;;;;;;67.60;38.27;;;;;;;3.16;89.29;94369.81;5012190;28;20963;-81
2021/12/09 11:00:24;;;;;;;62.90;34.40;;;;;;;3.13;88.60;94377.78;5012054;28;20510;-82
2021/12/09 11:03:04;;;;;;;57.70;29.93;;;;;;;2.79;89.13;94374.75;5012189;28;20443;-81
2021/12/09 11:05:32;;;;;;;65.17;33.57;;;;;;;2.91;90.00;94357.63;5065556;28;20923;-81
2021/12/09 11:08:27;;;;;;;58.40;35.57;;;;;;;3.20;90.90;94364.38;5074253;28;20428;-81
2021/12/09 11:11:08;;;;;;;63.73;34.40;;;;;;;3.48;89.75;94363.41;5074050;28;20472;-81
2021/12/09 11:13:51;;;;;;;65.37;36.23;;;;;;;3.73;88.74;94362.59;5073707;28;20435;-81
2021/12/09 11:16:24;;;;;;;77.90;41.13;;;;;;;3.99;88.18;94355.66;5074251;28;20464;-81
2021/12/09 11:18:56;;;;;;;68.40;38.47;;;;;;;4.16;87.07;94352.75;5073524;28;20966;-81
2021/12/09 11:21:31;;;;;;;69.60;39.80;;;;;;;4.24;86.69;94347.03;5074326;28;20425;-81
2021/12/09 11:24:01;;;;;;;64.13;34.80;;;;;;;4.16;84.66;94349.31;5073889;28;20463;-81
2021/12/09 11:26:47;;;;;;;71.20;36.43;;;;;;;4.35;85.76;94334.97;5073753;28;20476;-81
2021/12/09 11:29:17;;;;;;;63.67;36.23;;;;;;;4.56;84.84;94335.22;5073575;28;20845;-80
2021/12/09 11:31:56;;;;;;;78.50;43.47;;;;;;;4.63;85.47;94348.63;5073606;28;20444;-80
2021/12/09 11:34:27;;;;;;;76.50;43.70;;;;;;;4.73;85.68;94349.63;5073913;28;20440;-80
2021/12/09 11:36:59;;;;;;;94.60;47.37;;;;;;;4.78;84.41;94342.34;5073416;28;20846;-81
2021/12/09 11:45:50;;;;;;;89.90;46.60;;;;;;;4.65;85.46;94334.59;5031160;28;20492;-81
2021/12/09 11:48:18;;;;;;;89.30;49.17;;;;;;;4.64;85.50;94345.09;5030959;28;21101;-80
2021/12/09 11:50:48;;;;;;;93.03;49.70;;;;;;;4.45;85.63;94355.09;5011699;28;20602;-80
2021/12/09 11:53:17;;;;;;;106.07;50.33;;;;;;;4.34;85.35;94348.91;5018715;28;20438;-80
2021/12/09 11:55:50;;;;;;;90.40;48.77;;;;;;;4.25;86.64;94338.28;5031186;28;20434;-80
2021/12/09 12:11:35;;;;;;;108.87;55.87;;;;;;;3.73;88.90;94328.84;5004065;28;20467;-81
2021/12/09 12:14:08;;;;;;;108.47;55.27;;;;;;;3.68;88.55;94318.78;4991360;28;20440;-82
2021/12/09 12:16:57;;;;;;;104.80;52.20;;;;;;;3.53;88.70;94314.66;5009280;28;20442;-80
2021/12/09 12:20:15;;;;;;;105.13;54.67;;;;;;;3.16;90.61;94310.19;5040737;28;20480;-81
2021/12/09 12:23:15;;;;;;;108.27;52.50;;;;;;;3.22;91.27;94305.47;5011357;28;20443;-80
2021/12/09 12:38:50;;;;;;;90.67;45.77;;;;;;;3.21;92.04;94288.25;5050728;28;20445;-82
2021/12/09 12:41:19;;;;;;;84.83;45.40;;;;;;;3.37;92.30;94277.69;5009903;28;20455;-84
2021/12/09 12:43:55;;;;;;;76.90;41.10;;;;;;;5.20;100.00;94264.75;4978523;28;20485;-82
2021/12/09 12:46:43;;;;;;;79.17;45.03;;;;;;;5.07;100.00;94271.81;5010951;28;20497;-80
2021/12/09 12:49:19;;;;;;;87.30;50.03;;;;;;;5.47;100.00;94272.28;5010904;28;21105;-79
2021/12/09 12:52:01;;;;;;;103.03;53.13;;;;;;;6.08;92.29;94291.97;5019172;28;20461;-79
2021/12/09 12:54:45;;;;;;;79.50;46.97;;;;;;;6.16;88.82;94293.97;5030445;28;20446;-79
2021/12/09 12:57:16;;;;;;;80.67;45.07;;;;;;;6.13;81.52;94304.63;5010867;28;20431;-82
2021/12/09 12:59:45;;;;;;;97.47;52.50;;;;;;;6.11;80.16;94309.94;5042457;28;20524;-82
2021/12/09 13:05:24;;;;;;;82.80;46.20;;;;;;;5.78;82.51;94286.44;5056264;28;20422;-82
2021/12/09 13:11:06;;;;;;;98.47;50.77;;;;;;;5.64;85.01;94278.84;5014755;28;20454;-83
2021/12/09 13:13:42;;;;;;;95.27;49.37;;;;;;;5.50;83.99;94265.09;5014437;28;20546;-82
2021/12/09 13:16:16;;;;;;;91.93;49.10;;;;;;;5.44;83.13;94273.34;5014310;28;21052;-82
2021/12/09 13:18:59;;;;;;;89.07;48.73;;;;;;;5.35;83.39;94268.00;5014152;28;20553;-81
2021/12/09 13:21:47;;;;;;;109.17;53.70;;;;;;;5.30;83.57;94265.75;5014138;28;20819;-80
2021/12/09 13:24:48;;;;;;;93.83;51.27;;;;;;;5.24;84.21;94261.03;5014132;28;20782;-80
2021/12/09 13:27:43;;;;;;;106.83;55.43;;;;;;;5.23;84.72;94277.56;5014018;28;20475;-80
2021/12/09 13:30:32;;;;;;;118.57;60.17;;;;;;;5.16;84.78;94268.53;5014009;28;20538;-79
2021/12/09 13:47:20;;;;;;;152.67;75.00;;;;;;;4.37;88.08;94228.38;5055417;28;20485;-81
2021/12/09 13:49:55;;;;;;;133.63;74.57;;;;;;;4.37;90.79;94230.97;5055454;28;20785;-80
2021/12/09 13:55:11;;;;;;;120.97;65.90;;;;;;;4.55;90.09;94239.19;5054860;28;20429;-82
2021/12/09 13:57:41;;;;;;;116.57;60.20;;;;;;;4.71;92.98;94221.56;5055664;28;20460;-82
2021/12/09 14:00:14;;;;;;;130.10;65.20;;;;;;;6.69;100.00;94216.78;5054663;28;20410;-78
2021/12/09 14:02:41;;;;;;;149.50;78.23;;;;;;;6.94;85.74;94248.69;5054365;28;20654;-80
2021/12/09 14:05:14;;;;;;;166.80;79.37;;;;;;;6.95;83.70;94252.97;5054668;28;20441;-81
2021/12/09 14:07:48;;;;;;;168.70;93.70;;;;;;;6.84;81.85;94228.56;5054988;28;20463;-81
2021/12/09 14:10:17;;;;;;;167.90;91.07;;;;;;;6.74;80.95;94232.06;5054376;28;20441;-81
2021/12/09 14:12:55;;;;;;;171.30;87.10;;;;;;;6.62;80.77;94226.03;5055340;28;20533;-81
2021/12/09 14:15:35;;;;;;;148.03;79.97;;;;;;;6.35;80.19;94225.59;5055048;28;20447;-83
2021/12/09 14:18:07;;;;;;;155.60;81.30;;;;;;;6.24;83.99;94231.66;5054762;28;20449;-81